Time;durP1;ratioP1;P1;durP2;ratioP2;P2;SDS_P1;SDS_P2;PMS_P1;PMS_P2;Temp;Humidity;BMP_temperature;BMP_pressure;BME280_temperature;BME280_humidity;BME280_pressure;Samples;Min_cycle;Max_cycle;Signal;HPM_P1;HPM_P2
2023/03/05 00:00:37;;;;;;;36.25;13.05;;;-1.30;99.90;;;;;;8215227;28;20063;-80
2023/03/05 00:04:38;;;;;;;36.90;13.25;;;-1.20;99.90;;;;;;8195028;28;20019;-80
2023/03/05 00:08:38;;;;;;;40.78;13.55;;;-1.10;99.90;;;;;;8213474;28;20026;-80
2023/03/05 00:12:39;;;;;;;38.28;11.98;;;-1.20;99.90;;;;;;8217058;28;20038;-80
2023/03/05 00:16:40;;;;;;;33.70;12.65;;;-1.10;99.90;;;;;;8209006;28;20031;-79
2023/03/05 00:20:40;;;;;;;32.35;13.07;;;-1.10;99.90;;;;;;8216686;28;20085;-78
2023/03/05 00:24:41;;;;;;;29.00;12.70;;;-1.00;99.90;;;;;;8216619;28;20441;-79
2023/03/05 00:28:41;;;;;;;31.15;13.23;;;-0.90;99.90;;;;;;8200419;28;20085;-79
2023/03/05 00:32:42;;;;;;;33.95;12.43;;;-0.90;99.90;;;;;;8218124;28;20050;-79
2023/03/05 00:36:45;;;;;;;24.13;10.32;;;-1.00;99.90;;;;;;8210118;28;20031;-79
2023/03/05 00:40:49;;;;;;;24.88;10.80;;;-0.90;99.90;;;;;;8208006;28;20412;-79
2023/03/05 00:44:49;;;;;;;35.67;13.00;;;-0.70;99.90;;;;;;8193609;28;20037;-79
2023/03/05 00:48:50;;;;;;;25.67;10.70;;;-0.60;99.90;;;;;;8191587;28;20026;-80
2023/03/05 00:52:50;;;;;;;33.90;13.57;;;-0.60;99.90;;;;;;8203028;28;20026;-80
2023/03/05 00:56:51;;;;;;;35.60;12.63;;;-0.50;99.90;;;;;;8210528;28;20027;-80
2023/03/05 01:00:51;;;;;;;33.75;12.63;;;-0.40;99.90;;;;;;8202021;28;20113;-80
2023/03/05 01:04:52;;;;;;;41.17;14.32;;;-0.40;99.90;;;;;;8226112;28;20023;-81
2023/03/05 01:08:52;;;;;;;34.50;12.27;;;-0.30;99.90;;;;;;8221596;28;20027;-80
2023/03/05 01:12:54;;;;;;;31.27;12.35;;;-0.40;99.90;;;;;;8200399;28;20031;-80
2023/03/05 01:16:54;;;;;;;26.33;11.93;;;-0.50;99.90;;;;;;8197103;28;20121;-81
2023/03/05 01:20:55;;;;;;;34.05;11.57;;;-0.70;99.90;;;;;;8222652;28;20089;-80
2023/03/05 01:24:56;;;;;;;29.08;11.70;;;-1.00;99.90;;;;;;8223304;28;20392;-78
2023/03/05 01:28:56;;;;;;;35.42;11.88;;;-1.20;99.90;;;;;;8212067;28;20467;-79
2023/03/05 01:32:57;;;;;;;32.75;12.27;;;-1.30;99.90;;;;;;8218722;28;20099;-80
2023/03/05 01:36:58;;;;;;;32.92;11.80;;;-1.40;99.90;;;;;;8218062;28;20034;-79
2023/03/05 01:40:58;;;;;;;27.88;10.98;;;-1.40;99.90;;;;;;8219482;28;20495;-80
2023/03/05 01:45:11;;;;;;;32.47;10.13;;;-1.40;99.90;;;;;;8213284;28;20101;-79
2023/03/05 01:49:34;;;;;;;29.63;11.40;;;-1.40;99.90;;;;;;8221442;28;20058;-79
2023/03/05 01:53:35;;;;;;;35.45;11.88;;;-1.30;99.90;;;;;;8223062;28;20015;-79
2023/03/05 01:57:44;;;;;;;32.17;11.48;;;-1.20;99.90;;;;;;8223243;28;20118;-79
2023/03/05 02:01:49;;;;;;;34.37;10.77;;;-1.00;99.90;;;;;;8202615;28;20042;-79
2023/03/05 02:05:50;;;;;;;32.35;12.68;;;-1.10;99.90;;;;;;8207816;28;20357;-79
2023/03/05 02:09:50;;;;;;;28.00;11.13;;;-1.10;99.90;;;;;;8200545;28;20159;-79
2023/03/05 02:13:51;;;;;;;32.40;11.55;;;-1.00;99.90;;;;;;8221326;28;20399;-79
2023/03/05 02:17:51;;;;;;;24.30;9.95;;;-1.00;99.90;;;;;;8219202;28;20109;-79
2023/03/05 02:21:52;;;;;;;27.42;11.23;;;-1.10;99.90;;;;;;8224696;28;20034;-79
2023/03/05 02:25:53;;;;;;;29.08;10.48;;;-1.20;99.90;;;;;;8217422;28;20053;-78
2023/03/05 02:29:54;;;;;;;32.42;12.57;;;-1.30;99.90;;;;;;8203763;28;20019;-80
2023/03/05 02:33:57;;;;;;;33.05;10.50;;;-1.50;99.90;;;;;;8221650;28;20057;-79
2023/03/05 02:37:57;;;;;;;28.23;11.30;;;-1.60;99.90;;;;;;8222175;28;20042;-80
2023/03/05 02:41:58;;;;;;;27.13;11.20;;;-1.70;99.90;;;;;;8225294;28;20109;-82
2023/03/05 02:45:58;;;;;;;26.58;11.13;;;-1.80;99.90;;;;;;8228550;28;20030;-79
2023/03/05 02:49:59;;;;;;;27.90;10.45;;;-1.60;99.90;;;;;;8230785;28;20035;-78
2023/03/05 02:54:00;;;;;;;38.22;12.15;;;-1.30;99.90;;;;;;8212893;28;20162;-79
2023/03/05 02:58:00;;;;;;;38.80;13.15;;;-1.20;99.90;;;;;;8220072;28;20034;-79
2023/03/05 03:02:01;;;;;;;24.80;11.00;;;-1.10;99.90;;;;;;8230257;28;20035;-78
2023/03/05 03:06:02;;;;;;;37.03;12.48;;;-1.00;99.90;;;;;;8222042;28;20513;-79
2023/03/05 03:10:04;;;;;;;37.13;13.45;;;-0.90;99.90;;;;;;8232349;28;20534;-79
2023/03/05 03:14:05;;;;;;;38.90;13.10;;;-0.80;99.90;;;;;;8221436;28;20058;-79
2023/03/05 03:18:06;;;;;;;39.20;12.95;;;-0.80;99.90;;;;;;8216709;28;20031;-79
2023/03/05 03:22:08;;;;;;;38.78;13.88;;;-0.70;99.90;;;;;;8216459;28;20027;-80
2023/03/05 03:26:09;;;;;;;41.90;13.85;;;-0.70;99.90;;;;;;8210065;28;20023;-80
2023/03/05 03:30:11;;;;;;;36.72;12.68;;;-0.70;99.90;;;;;;8225635;28;20034;-79
2023/03/05 03:34:13;;;;;;;39.50;12.20;;;-0.60;99.90;;;;;;8226726;28;20511;-79
2023/03/05 03:38:14;;;;;;;35.30;13.32;;;-0.50;99.90;;;;;;8232788;28;20026;-79
2023/03/05 03:42:19;;;;;;;31.05;11.80;;;-0.50;99.90;;;;;;8228630;28;20026;-78
2023/03/05 03:46:20;;;;;;;35.00;14.35;;;-0.30;99.90;;;;;;8231756;28;20031;-79
2023/03/05 03:50:23;;;;;;;34.65;12.75;;;-0.20;99.90;;;;;;8224071;28;20557;-79
2023/03/05 03:54:24;;;;;;;29.08;12.13;;;-0.20;99.90;;;;;;8226989;28;20580;-78
2023/03/05 03:58:24;;;;;;;27.67;11.43;;;-0.20;99.90;;;;;;8215695;28;20055;-78
2023/03/05 04:02:26;;;;;;;33.08;13.45;;;-0.30;99.90;;;;;;8228519;28;20061;-79
2023/03/05 04:06:26;;;;;;;32.17;13.05;;;-0.40;99.90;;;;;;8229978;28;20030;-79
2023/03/05 04:10:27;;;;;;;33.70;11.98;;;-0.40;99.90;;;;;;8209931;28;20411;-79
2023/03/05 04:14:27;;;;;;;36.88;13.68;;;-0.30;99.90;;;;;;8229934;28;20057;-79
2023/03/05 04:18:28;;;;;;;38.25;13.07;;;-0.10;99.90;;;;;;8229653;28;20061;-79
2023/03/05 04:22:28;;;;;;;41.10;13.57;;;-0.10;99.90;;;;;;8217428;28;20032;-79
2023/03/05 04:26:29;;;;;;;29.73;11.15;;;-0.10;99.90;;;;;;8220428;28;20617;-78
2023/03/05 04:30:30;;;;;;;31.38;12.05;;;-0.20;99.90;;;;;;8220480;28;20089;-79
2023/03/05 04:34:31;;;;;;;38.67;14.25;;;-0.20;99.90;;;;;;8226313;28;20038;-78
2023/03/05 04:38:32;;;;;;;34.25;12.50;;;-0.10;99.90;;;;;;8230509;28;20022;-78
2023/03/05 04:42:32;;;;;;;40.22;13.63;;;-0.10;99.90;;;;;;8224515;28;20027;-78
2023/03/05 04:46:33;;;;;;;29.98;11.48;;;-0.10;99.90;;;;;;8228629;28;20019;-79
2023/03/05 04:50:34;;;;;;;35.38;10.85;;;-0.10;99.90;;;;;;8224346;28;20019;-79
2023/03/05 04:54:34;;;;;;;31.48;11.90;;;0.00;99.90;;;;;;8209540;28;20042;-79
2023/03/05 04:58:35;;;;;;;28.52;10.65;;;-0.10;99.90;;;;;;8212981;28;20073;-78
2023/03/05 05:02:35;;;;;;;26.50;10.77;;;0.40;99.90;;;;;;8221973;28;20031;-78
2023/03/05 05:06:36;;;;;;;29.17;9.60;;;0.70;99.90;;;;;;8207886;28;20027;-80
2023/03/05 05:10:40;;;;;;;26.23;10.15;;;0.40;99.90;;;;;;8217042;28;20023;-79
2023/03/05 05:14:40;;;;;;;25.85;9.63;;;0.20;99.90;;;;;;8227353;28;20015;-78
2023/03/05 05:18:41;;;;;;;27.17;9.65;;;0.10;99.90;;;;;;8213051;28;20166;-78
2023/03/05 05:22:42;;;;;;;26.40;10.40;;;-0.10;99.90;;;;;;8196134;28;20027;-81
2023/03/05 05:26:43;;;;;;;25.85;10.23;;;0.00;99.90;;;;;;8200345;28;20519;-79
2023/03/05 05:30:43;;;;;;;32.28;10.85;;;0.20;99.90;;;;;;8211093;28;20026;-80
2023/03/05 05:34:44;;;;;;;34.28;11.43;;;0.10;99.90;;;;;;8209846;28;20784;-79
2023/03/05 05:38:45;;;;;;;22.75;8.88;;;0.20;99.90;;;;;;8197788;28;20054;-79
2023/03/05 05:42:45;;;;;;;27.30;10.27;;;0.10;99.90;;;;;;8195066;28;20384;-80
2023/03/05 05:46:46;;;;;;;25.45;9.57;;;0.00;99.90;;;;;;8196059;28;20118;-79
2023/03/05 05:50:46;;;;;;;23.10;8.88;;;-0.10;99.90;;;;;;8188441;28;20061;-79
2023/03/05 05:54:47;;;;;;;25.70;9.20;;;-0.10;99.90;;;;;;8201065;28;20447;-80
2023/03/05 05:58:48;;;;;;;24.25;9.50;;;0.00;99.90;;;;;;8204377;28;20044;-78
2023/03/05 06:02:49;;;;;;;34.25;10.18;;;0.10;99.90;;;;;;8201819;28;20117;-79
2023/03/05 06:06:49;;;;;;;26.30;9.88;;;0.30;99.90;;;;;;8205072;28;20130;-79
2023/03/05 06:10:56;;;;;;;25.55;9.50;;;0.40;99.90;;;;;;8220110;28;20059;-79
2023/03/05 06:14:56;;;;;;;23.05;9.15;;;0.60;99.90;;;;;;8207012;28;20050;-79
2023/03/05 06:18:57;;;;;;;23.25;9.32;;;0.30;99.90;;;;;;8206082;28;20070;-80
2023/03/05 06:22:58;;;;;;;24.10;9.05;;;0.40;99.90;;;;;;8218684;28;20534;-79
2023/03/05 06:26:58;;;;;;;22.27;9.30;;;0.30;99.90;;;;;;8201234;28;20372;-79
2023/03/05 06:31:01;;;;;;;28.40;8.95;;;0.50;99.90;;;;;;8202368;28;20090;-80
2023/03/05 06:35:02;;;;;;;25.02;8.57;;;0.40;99.90;;;;;;8203505;28;20124;-80
2023/03/05 06:39:03;;;;;;;25.60;8.90;;;0.30;99.90;;;;;;8204909;28;20373;-79
2023/03/05 06:43:04;;;;;;;25.27;9.15;;;0.30;99.90;;;;;;8214858;28;20098;-81
2023/03/05 06:47:06;;;;;;;34.80;12.05;;;0.20;99.90;;;;;;8188724;28;20029;-79
2023/03/05 06:51:15;;;;;;;25.05;10.77;;;0.20;99.90;;;;;;8184952;28;20031;-79
2023/03/05 06:55:17;;;;;;;27.25;9.75;;;0.30;99.90;;;;;;8202379;28;20023;-79
2023/03/05 06:59:17;;;;;;;27.25;9.80;;;0.30;99.90;;;;;;8196708;28;20122;-79
2023/03/05 07:03:18;;;;;;;29.85;10.75;;;0.40;99.90;;;;;;8203798;28;20116;-79
2023/03/05 07:07:18;;;;;;;24.70;9.45;;;0.40;99.90;;;;;;8204806;28;20031;-79
2023/03/05 07:11:20;;;;;;;28.83;9.82;;;0.70;99.90;;;;;;8206512;28;20090;-78
2023/03/05 07:15:21;;;;;;;23.98;8.93;;;0.80;99.90;;;;;;8210444;28;20121;-79
2023/03/05 07:19:21;;;;;;;33.65;10.85;;;0.80;99.90;;;;;;8211698;28;20046;-79
2023/03/05 07:23:22;;;;;;;23.55;9.45;;;0.80;99.90;;;;;;8225367;28;20031;-79
2023/03/05 07:27:24;;;;;;;21.63;9.05;;;0.90;99.90;;;;;;8206122;28;20031;-79
2023/03/05 07:31:30;;;;;;;19.23;8.27;;;1.10;99.90;;;;;;8202393;28;20027;-78
2023/03/05 07:35:31;;;;;;;21.70;9.07;;;1.40;99.90;;;;;;8208446;28;20562;-79
2023/03/05 07:39:31;;;;;;;21.52;8.93;;;1.40;99.90;;;;;;8209343;28;20113;-79
2023/03/05 07:43:32;;;;;;;17.45;8.07;;;1.70;99.90;;;;;;8208425;28;20042;-79
2023/03/05 07:47:33;;;;;;;23.70;8.73;;;2.00;99.90;;;;;;8214521;28;20057;-80
2023/03/05 07:51:33;;;;;;;25.45;9.07;;;1.80;99.90;;;;;;8205704;28;20385;-78
2023/03/05 07:55:34;;;;;;;26.55;9.27;;;1.80;99.90;;;;;;8203889;28;20035;-79
2023/03/05 07:59:34;;;;;;;27.38;9.00;;;2.20;99.90;;;;;;8205156;28;20581;-79
2023/03/05 08:03:35;;;;;;;20.00;8.18;;;2.30;99.90;;;;;;8207129;28;20035;-80
2023/03/05 08:07:35;;;;;;;24.52;8.77;;;2.10;99.90;;;;;;8190320;28;20031;-78
2023/03/05 08:11:36;;;;;;;22.25;8.20;;;2.00;99.90;;;;;;8212122;28;20039;-78
2023/03/05 08:15:37;;;;;;;22.20;7.72;;;2.10;99.90;;;;;;8211503;28;20027;-78
2023/03/05 08:19:38;;;;;;;22.58;8.93;;;2.60;99.90;;;;;;8209491;28;20031;-79
2023/03/05 08:23:38;;;;;;;17.38;6.53;;;2.60;99.90;;;;;;8199583;28;20464;-78
2023/03/05 08:27:41;;;;;;;26.55;9.00;;;2.60;99.90;;;;;;8206654;28;20042;-78
2023/03/05 08:31:45;;;;;;;22.10;8.68;;;2.60;99.90;;;;;;8207710;28;20443;-78
2023/03/05 08:35:46;;;;;;;20.17;8.48;;;2.60;99.90;;;;;;8203270;28;20034;-78
2023/03/05 08:39:46;;;;;;;30.83;8.98;;;2.80;99.90;;;;;;8188248;28;20518;-77
2023/03/05 08:43:47;;;;;;;24.20;9.30;;;2.80;99.90;;;;;;8206925;28;20709;-78
2023/03/05 08:47:47;;;;;;;23.25;8.95;;;2.70;99.90;;;;;;8206125;28;20031;-77
2023/03/05 08:51:48;;;;;;;27.10;8.90;;;2.70;99.90;;;;;;8204970;28;20494;-77
2023/03/05 08:55:56;;;;;;;27.70;10.68;;;3.10;99.90;;;;;;8198310;28;20487;-78
2023/03/05 08:59:57;;;;;;;23.40;9.38;;;2.90;99.90;;;;;;8185354;28;20130;-77
2023/03/05 09:03:59;;;;;;;22.77;9.13;;;2.90;99.90;;;;;;8182460;28;20054;-78
2023/03/05 09:07:59;;;;;;;27.60;9.95;;;2.90;99.90;;;;;;8208554;28;20033;-78
2023/03/05 09:12:01;;;;;;;41.17;14.00;;;2.90;99.90;;;;;;8200905;28;20069;-79
2023/03/05 09:16:04;;;;;;;26.02;9.70;;;2.90;99.90;;;;;;8201146;28;20077;-78
2023/03/05 09:20:06;;;;;;;24.65;8.75;;;3.20;99.90;;;;;;8205908;28;20027;-77
2023/03/05 09:24:07;;;;;;;15.13;7.65;;;3.30;99.90;;;;;;8207906;28;20055;-78
2023/03/05 09:28:07;;;;;;;16.60;7.55;;;3.50;99.90;;;;;;8207846;28;20035;-78
2023/03/05 09:32:08;;;;;;;20.05;8.20;;;3.50;99.90;;;;;;8213721;28;20109;-78
2023/03/05 09:36:24;;;;;;;21.38;8.50;;;3.50;99.90;;;;;;8184983;28;20043;-77
2023/03/05 09:40:50;;;;;;;19.73;8.13;;;3.60;99.90;;;;;;8213344;28;20035;-77
2023/03/05 09:45:02;;;;;;;19.52;8.48;;;3.80;99.90;;;;;;8184831;28;20083;-78
2023/03/05 09:49:21;;;;;;;21.25;7.93;;;3.90;99.90;;;;;;8210612;28;20030;-78
2023/03/05 09:53:41;;;;;;;17.83;7.03;;;4.00;99.90;;;;;;8200670;28;20047;-77
2023/03/05 09:57:47;;;;;;;15.10;5.45;;;3.90;99.90;;;;;;8204441;28;20026;-77
2023/03/05 10:01:50;;;;;;;16.58;5.50;;;4.10;99.90;;;;;;8199983;28;20085;-77
2023/03/05 10:06:21;;;;;;;15.23;6.47;;;3.90;99.90;;;;;;8200498;28;20097;-77
2023/03/05 10:10:39;;;;;;;15.50;6.03;;;3.80;99.90;;;;;;8196876;28;20034;-79
2023/03/05 10:14:40;;;;;;;15.68;6.25;;;3.90;99.90;;;;;;8211113;28;20061;-79
2023/03/05 10:18:49;;;;;;;15.93;6.80;;;3.80;99.90;;;;;;8209550;28;20035;-78
2023/03/05 10:23:15;;;;;;;13.05;5.25;;;3.80;99.90;;;;;;8222983;28;20435;-78
2023/03/05 10:27:29;;;;;;;13.80;4.80;;;4.00;99.90;;;;;;8198340;28;20101;-78
2023/03/05 10:31:35;;;;;;;18.23;6.72;;;3.80;99.90;;;;;;8211733;28;20055;-78
2023/03/05 10:36:10;;;;;;;14.95;6.47;;;3.80;99.90;;;;;;8213554;28;20051;-77
2023/03/05 10:40:31;;;;;;;14.55;5.82;;;4.10;99.90;;;;;;8209037;28;20080;-78
2023/03/05 10:44:59;;;;;;;17.08;6.57;;;4.50;99.90;;;;;;8217899;28;20027;-78
2023/03/05 10:49:21;;;;;;;15.02;6.20;;;4.50;99.90;;;;;;8226598;28;20023;-78
2023/03/05 10:53:29;;;;;;;15.32;6.70;;;4.60;99.90;;;;;;8184936;28;20049;-78
2023/03/05 10:57:31;;;;;;;18.45;7.35;;;4.80;99.90;;;;;;8199349;28;20031;-79
2023/03/05 11:01:31;;;;;;;17.98;7.00;;;4.90;99.90;;;;;;8204068;28;20035;-79
2023/03/05 11:05:51;;;;;;;17.05;7.22;;;5.10;99.90;;;;;;8224815;28;20077;-79
2023/03/05 11:10:03;;;;;;;18.52;7.97;;;5.50;99.90;;;;;;8223283;28;20023;-78
2023/03/05 11:14:04;;;;;;;14.85;6.80;;;5.50;99.90;;;;;;8218100;28;20038;-78
2023/03/05 11:18:25;;;;;;;16.45;7.50;;;5.60;99.90;;;;;;8222615;28;20054;-77
2023/03/05 11:22:26;;;;;;;16.05;7.38;;;5.60;99.90;;;;;;8191996;28;20038;-78
2023/03/05 11:26:26;;;;;;;18.17;6.57;;;6.00;99.90;;;;;;8229177;28;20054;-78
2023/03/05 11:30:33;;;;;;;20.52;7.10;;;6.00;99.90;;;;;;8222442;28;20038;-78
2023/03/05 11:34:34;;;;;;;16.17;7.45;;;6.30;99.90;;;;;;8218149;28;20431;-78
2023/03/05 11:38:45;;;;;;;17.77;7.40;;;6.40;99.90;;;;;;8219546;28;20031;-78
2023/03/05 11:42:54;;;;;;;15.75;6.70;;;6.40;99.90;;;;;;8200936;28;20462;-78
2023/03/05 11:47:27;;;;;;;18.05;7.80;;;6.50;99.90;;;;;;8210799;28;20056;-78
2023/03/05 11:51:40;;;;;;;15.43;7.30;;;6.60;99.90;;;;;;8211995;28;20039;-80
2023/03/05 11:56:19;;;;;;;16.92;7.78;;;6.50;99.90;;;;;;8227435;28;20113;-78
2023/03/05 12:00:27;;;;;;;22.23;7.55;;;6.40;99.90;;;;;;8144788;28;20050;-77
2023/03/05 12:04:31;;;;;;;19.77;8.45;;;6.60;99.90;;;;;;8206956;28;20051;-78
2023/03/05 12:08:36;;;;;;;17.38;7.68;;;6.40;99.90;;;;;;8198191;28;20027;-78
2023/03/05 12:13:05;;;;;;;16.70;7.80;;;6.40;99.90;;;;;;8196836;28;20035;-77
2023/03/05 12:17:09;;;;;;;16.42;7.35;;;6.40;99.90;;;;;;8208616;28;20035;-77
2023/03/05 12:21:31;;;;;;;22.48;8.45;;;6.20;99.90;;;;;;8195877;28;20033;-77
2023/03/05 12:25:43;;;;;;;15.73;6.93;;;6.30;99.90;;;;;;8190043;28;20030;-77
2023/03/05 12:29:47;;;;;;;21.58;8.48;;;6.30;99.90;;;;;;8200317;28;20027;-78
2023/03/05 12:33:48;;;;;;;13.30;6.22;;;6.30;99.90;;;;;;8198280;28;20034;-77
2023/03/05 12:37:48;;;;;;;15.60;7.20;;;6.50;99.90;;;;;;8197207;28;20428;-77
2023/03/05 12:41:49;;;;;;;17.67;7.80;;;6.20;99.90;;;;;;8205540;28;20121;-77
2023/03/05 12:45:51;;;;;;;14.63;7.03;;;6.50;99.90;;;;;;8217583;28;20027;-77
2023/03/05 12:49:52;;;;;;;16.65;7.20;;;6.50;99.90;;;;;;8214954;28;20019;-77
2023/03/05 12:53:52;;;;;;;21.17;9.57;;;6.60;99.90;;;;;;8183873;28;20089;-77
2023/03/05 12:58:13;;;;;;;15.20;6.18;;;6.40;99.90;;;;;;8202905;28;20114;-78
2023/03/05 13:02:22;;;;;;;17.88;7.95;;;6.40;99.90;;;;;;8195684;28;20117;-77
2023/03/05 13:06:29;;;;;;;15.57;6.32;;;6.50;99.90;;;;;;8193146;28;20023;-77
2023/03/05 13:10:30;;;;;;;12.40;6.10;;;6.70;99.90;;;;;;8191608;28;20515;-77
2023/03/05 13:14:42;;;;;;;13.45;6.18;;;6.60;99.90;;;;;;8180373;28;20026;-78
2023/03/05 13:18:47;;;;;;;13.68;5.95;;;6.70;99.90;;;;;;8197637;28;20031;-78
2023/03/05 13:22:47;;;;;;;18.10;6.65;;;6.80;99.90;;;;;;8179450;28;20439;-77
2023/03/05 13:26:48;;;;;;;15.93;6.28;;;6.60;99.90;;;;;;8193885;28;20031;-78
2023/03/05 13:30:52;;;;;;;11.05;5.43;;;6.60;99.90;;;;;;8179265;28;20098;-78
2023/03/05 13:34:56;;;;;;;17.13;6.07;;;6.50;99.90;;;;;;8193700;28;20627;-78
2023/03/05 13:38:57;;;;;;;16.55;6.40;;;6.50;99.90;;;;;;8194704;28;20118;-77
2023/03/05 13:43:12;;;;;;;17.13;6.18;;;6.50;99.90;;;;;;8177762;28;20035;-77
2023/03/05 13:47:17;;;;;;;15.68;6.50;;;6.50;99.90;;;;;;8193164;28;20399;-78
2023/03/05 13:51:18;;;;;;;13.02;5.93;;;6.40;99.90;;;;;;8200807;28;20666;-77
2023/03/05 13:55:18;;;;;;;16.30;5.95;;;6.50;99.90;;;;;;8205622;28;20042;-77
2023/03/05 13:59:22;;;;;;;11.32;5.60;;;6.60;99.90;;;;;;8209143;28;20034;-77
2023/03/05 14:03:26;;;;;;;12.55;6.05;;;6.60;99.90;;;;;;8198218;28;20789;-77
2023/03/05 14:07:31;;;;;;;12.73;6.22;;;6.80;99.90;;;;;;8201064;28;20023;-78
2023/03/05 14:11:33;;;;;;;14.52;6.45;;;6.80;99.90;;;;;;8197312;28;20031;-76
2023/03/05 14:15:34;;;;;;;13.50;6.15;;;6.70;99.90;;;;;;8197433;28;20031;-75
2023/03/05 14:19:37;;;;;;;13.63;6.93;;;6.70;99.90;;;;;;8199049;28;20031;-77
2023/03/05 14:23:41;;;;;;;12.05;5.57;;;6.90;99.90;;;;;;8201919;28;20038;-76
2023/03/05 14:27:45;;;;;;;11.85;5.45;;;6.80;99.90;;;;;;8200544;28;20447;-75
2023/03/05 14:31:53;;;;;;;14.45;5.80;;;6.70;99.90;;;;;;8210814;28;20050;-77
2023/03/05 14:35:54;;;;;;;12.30;4.88;;;6.40;99.90;;;;;;8215471;28;20050;-76
2023/03/05 14:39:58;;;;;;;14.18;6.57;;;6.40;99.90;;;;;;8207468;28;20043;-75
2023/03/05 14:43:59;;;;;;;13.98;6.45;;;6.30;99.90;;;;;;8214364;28;20069;-76
2023/03/05 14:48:02;;;;;;;12.10;5.55;;;6.40;99.90;;;;;;8211152;28;20388;-76
2023/03/05 14:52:05;;;;;;;14.30;6.30;;;6.20;99.90;;;;;;8201000;28;20027;-76
2023/03/05 14:56:17;;;;;;;16.00;6.78;;;6.20;99.90;;;;;;8184335;28;20408;-75
2023/03/05 15:00:23;;;;;;;15.35;6.45;;;6.20;99.90;;;;;;8197141;28;20028;-75
2023/03/05 15:04:24;;;;;;;10.75;4.95;;;6.20;99.90;;;;;;8206641;28;20078;-76
2023/03/05 15:08:27;;;;;;;9.88;4.30;;;6.30;99.90;;;;;;8210407;28;20031;-76
2023/03/05 15:12:27;;;;;;;9.52;4.43;;;6.40;99.90;;;;;;8221251;28;20388;-76
2023/03/05 15:16:28;;;;;;;7.88;4.30;;;6.30;99.90;;;;;;8209177;28;20023;-76
2023/03/05 15:20:30;;;;;;;9.55;3.92;;;6.00;99.90;;;;;;8218068;28;20031;-75
2023/03/05 15:24:30;;;;;;;7.72;3.70;;;6.20;99.90;;;;;;8206727;28;20019;-75
2023/03/05 15:28:35;;;;;;;6.80;3.60;;;5.90;99.90;;;;;;8209797;28;20031;-76
2023/03/05 15:32:36;;;;;;;8.55;4.10;;;5.60;99.90;;;;;;8214199;28;20101;-76
2023/03/05 15:36:36;;;;;;;8.93;4.53;;;5.60;99.90;;;;;;8228009;28;20125;-76
2023/03/05 15:40:37;;;;;;;10.38;4.18;;;5.60;99.90;;;;;;8221118;28;20534;-76
2023/03/05 15:44:38;;;;;;;10.63;4.07;;;5.60;99.90;;;;;;8230697;28;20476;-75
2023/03/05 15:48:40;;;;;;;10.13;3.75;;;5.50;99.90;;;;;;8231117;28;20018;-75
2023/03/05 15:52:41;;;;;;;9.30;3.85;;;5.30;99.90;;;;;;8224782;28;20085;-75
2023/03/05 15:56:42;;;;;;;8.82;4.50;;;5.00;99.90;;;;;;8229121;28;20074;-75
2023/03/05 16:00:43;;;;;;;6.93;3.67;;;4.80;99.90;;;;;;8225717;28;20039;-75
2023/03/05 16:04:43;;;;;;;9.25;4.57;;;4.70;99.90;;;;;;8222049;28;20023;-76
2023/03/05 16:08:44;;;;;;;10.88;4.40;;;4.90;99.90;;;;;;8222993;28;20097;-76
2023/03/05 16:12:47;;;;;;;7.38;3.38;;;4.80;99.90;;;;;;8221019;28;20061;-75
2023/03/05 16:16:48;;;;;;;7.90;3.88;;;4.70;99.90;;;;;;8228861;28;20027;-75
2023/03/05 16:20:49;;;;;;;9.75;3.72;;;4.70;99.90;;;;;;8224051;28;20049;-75
2023/03/05 16:24:50;;;;;;;12.70;4.65;;;4.70;99.90;;;;;;8229444;28;20049;-76
2023/03/05 16:28:50;;;;;;;7.95;4.45;;;4.50;99.90;;;;;;8228428;28;20019;-76
2023/03/05 16:32:51;;;;;;;9.40;4.30;;;4.30;99.90;;;;;;8226008;28;20046;-76
2023/03/05 16:36:51;;;;;;;7.57;3.42;;;4.00;99.90;;;;;;8229617;28;20122;-76
2023/03/05 16:40:52;;;;;;;10.68;4.30;;;3.80;99.90;;;;;;8221135;28;20034;-75
2023/03/05 16:44:53;;;;;;;9.20;4.25;;;3.80;99.90;;;;;;8220971;28;20634;-76
2023/03/05 16:48:54;;;;;;;8.73;4.28;;;3.60;99.90;;;;;;8229383;28;20030;-76
2023/03/05 16:52:54;;;;;;;10.52;4.95;;;3.50;99.90;;;;;;8226573;28;20098;-76
2023/03/05 16:56:56;;;;;;;15.20;6.45;;;3.40;99.90;;;;;;8228600;28;20050;-76
2023/03/05 17:00:57;;;;;;;12.98;5.18;;;3.30;99.90;;;;;;8228329;28;20042;-75
2023/03/05 17:04:57;;;;;;;11.50;5.22;;;3.30;99.90;;;;;;8224792;28;20038;-76
2023/03/05 17:09:00;;;;;;;10.60;4.60;;;3.40;99.90;;;;;;8229058;28;20659;-77
2023/03/05 17:13:00;;;;;;;8.13;3.78;;;3.20;99.90;;;;;;8222389;28;20027;-76
2023/03/05 17:17:01;;;;;;;9.68;4.10;;;3.10;99.90;;;;;;8221395;28;20027;-76
2023/03/05 17:21:03;;;;;;;8.40;4.05;;;3.00;99.90;;;;;;8228767;28;20085;-77
2023/03/05 17:25:04;;;;;;;10.10;3.78;;;3.00;99.90;;;;;;8228221;28;20027;-76
2023/03/05 17:29:06;;;;;;;10.00;4.15;;;2.90;99.90;;;;;;8226085;28;20026;-76
2023/03/05 17:33:09;;;;;;;15.93;5.80;;;2.70;99.90;;;;;;8220973;28;20074;-76
2023/03/05 17:37:09;;;;;;;13.43;4.78;;;2.70;99.90;;;;;;8213034;28;20145;-76
2023/03/05 17:41:11;;;;;;;9.20;5.15;;;2.60;99.90;;;;;;8211065;28;20031;-76
2023/03/05 17:45:12;;;;;;;15.48;5.43;;;2.40;99.90;;;;;;8204525;28;20027;-76
2023/03/05 17:49:13;;;;;;;8.25;3.63;;;2.40;99.90;;;;;;8197730;28;20034;-75
2023/03/05 17:53:13;;;;;;;10.98;4.57;;;2.50;99.90;;;;;;8176968;28;20035;-76
2023/03/05 17:57:14;;;;;;;10.57;4.35;;;2.60;99.90;;;;;;8190959;28;20034;-76
2023/03/05 18:01:26;;;;;;;11.55;4.65;;;2.40;99.90;;;;;;8196676;28;20072;-76
2023/03/05 18:05:27;;;;;;;8.68;4.47;;;2.40;99.90;;;;;;8194911;28;20023;-79
2023/03/05 18:09:28;;;;;;;8.77;4.30;;;2.60;99.90;;;;;;8209878;28;20094;-78
2023/03/05 18:13:29;;;;;;;13.57;5.57;;;2.30;99.90;;;;;;8194430;28;20031;-78
2023/03/05 18:17:29;;;;;;;15.10;7.00;;;2.00;99.90;;;;;;8194476;28;20062;-77
2023/03/05 18:21:30;;;;;;;8.85;4.70;;;2.00;99.90;;;;;;8194124;28;20038;-78
2023/03/05 18:25:30;;;;;;;20.58;7.90;;;2.00;99.90;;;;;;8196437;28;20142;-77
2023/03/05 18:29:31;;;;;;;22.98;9.52;;;2.10;99.90;;;;;;8182665;28;20091;-77
2023/03/05 18:33:31;;;;;;;25.67;10.07;;;2.10;99.90;;;;;;8196609;28;20712;-77
2023/03/05 18:37:32;;;;;;;21.05;8.23;;;2.30;99.90;;;;;;8201727;28;20050;-77
2023/03/05 18:41:33;;;;;;;9.38;4.50;;;2.10;99.90;;;;;;8186359;28;20027;-77
2023/03/05 18:45:33;;;;;;;9.02;3.63;;;2.30;99.90;;;;;;8171602;28;20050;-77
2023/03/05 18:49:34;;;;;;;8.65;3.67;;;2.60;99.90;;;;;;8191393;28;20106;-78
2023/03/05 18:53:35;;;;;;;6.20;3.40;;;2.50;99.90;;;;;;8207735;28;20035;-76
2023/03/05 18:57:35;;;;;;;8.88;3.78;;;2.30;99.90;;;;;;8183805;28;20035;-77
2023/03/05 19:01:36;;;;;;;10.02;3.88;;;2.00;99.90;;;;;;8200836;28;20039;-77
2023/03/05 19:05:37;;;;;;;9.57;4.57;;;1.70;99.90;;;;;;8201168;28;20035;-76
2023/03/05 19:09:54;;;;;;;9.82;4.65;;;2.20;99.90;;;;;;8192383;28;20046;-77
2023/03/05 19:13:55;;;;;;;13.05;4.90;;;2.00;99.90;;;;;;8184630;28;20546;-77
2023/03/05 19:17:56;;;;;;;15.50;5.22;;;2.30;99.90;;;;;;8195554;28;20134;-77
2023/03/05 19:21:58;;;;;;;10.35;4.32;;;2.20;99.90;;;;;;8195066;28;20146;-78
2023/03/05 19:26:00;;;;;;;4.63;2.72;;;2.20;99.90;;;;;;8205611;28;20101;-76
2023/03/05 19:30:01;;;;;;;6.30;2.95;;;2.10;99.90;;;;;;8202432;28;20030;-78
2023/03/05 19:34:02;;;;;;;7.75;3.53;;;2.00;99.90;;;;;;8205077;28;20023;-77
2023/03/05 19:38:02;;;;;;;9.75;3.72;;;1.60;99.90;;;;;;8184978;28;20081;-77
2023/03/05 19:42:03;;;;;;;7.38;3.53;;;1.40;99.90;;;;;;8197307;28;20110;-78
2023/03/05 19:46:06;;;;;;;8.68;3.35;;;1.60;99.90;;;;;;8196711;28;20030;-77
2023/03/05 19:50:07;;;;;;;7.75;3.90;;;1.70;99.90;;;;;;8193365;28;20456;-76
2023/03/05 19:54:08;;;;;;;7.80;3.90;;;1.40;99.90;;;;;;8202466;28;20031;-77
2023/03/05 19:58:08;;;;;;;11.20;5.07;;;1.40;99.90;;;;;;8202888;28;20478;-77
2023/03/05 20:02:11;;;;;;;13.32;5.65;;;1.80;99.90;;;;;;8187252;28;20076;-77
2023/03/05 20:06:12;;;;;;;12.90;5.35;;;2.10;99.90;;;;;;8182864;28;20049;-76
2023/03/05 20:10:13;;;;;;;12.90;5.88;;;1.90;99.90;;;;;;8199626;28;20135;-77
2023/03/05 20:14:13;;;;;;;11.65;4.78;;;1.60;99.90;;;;;;8203548;28;20039;-77
2023/03/05 20:18:14;;;;;;;12.55;5.00;;;1.50;99.90;;;;;;8180431;28;20049;-78
2023/03/05 20:22:14;;;;;;;11.85;5.38;;;2.20;99.90;;;;;;8199057;28;20031;-78
2023/03/05 20:26:15;;;;;;;13.35;5.43;;;1.80;99.90;;;;;;8183660;28;20094;-77
2023/03/05 20:30:16;;;;;;;13.35;5.75;;;1.40;99.90;;;;;;8207211;28;20027;-78
2023/03/05 20:34:18;;;;;;;15.13;4.97;;;1.20;99.90;;;;;;8207720;28;20617;-77
2023/03/05 20:38:24;;;;;;;12.73;5.75;;;1.20;99.90;;;;;;8227102;28;20195;-76
2023/03/05 20:42:24;;;;;;;16.63;6.32;;;1.30;99.90;;;;;;8227125;28;20031;-76
2023/03/05 20:46:30;;;;;;;15.02;5.93;;;1.40;99.90;;;;;;8214427;28;20022;-77
2023/03/05 20:50:32;;;;;;;13.75;6.22;;;1.50;99.90;;;;;;8227512;28;20861;-77
2023/03/05 20:54:33;;;;;;;13.73;5.63;;;1.40;99.90;;;;;;8228357;28;20421;-78
2023/03/05 20:58:33;;;;;;;12.68;6.22;;;1.20;99.90;;;;;;8208658;28;20027;-78